RJTT METAR and TAF | Updated Today

RJTT METAR

Tokyo Haneda International Airport

Observation time: 20 min. ago

RJTT 052000Z 34009KT 9999 BKN040 06/M01 Q1021 NOSIG RMK 6SC040 A3016

Need help? Read our tutorial on how to read METARs or read the parsed version below.

Tokyo Haneda International Airport (RJTT) METAR

  • Weather conditions on Sun, 05 Feb 2023 20:00:00 +0000 (20 min. ago):
  • Present conditions: Dry
  • Clouds: Broken sky at 1219 meters
  • Visibility: Greater than 10 km
  • Wind: 340 degrees at 9 knots
  • Temperature: 6 celsius
  • Dew point: -1 celsius
  • Pressure: 1021 millibars
  • Remarks: 6SC040 A3016


Useful to know...

RJTT TAF

Tokyo Haneda International Airport

TAF RJTT 051705Z 0518/0700 35010KT 9999 FEW020 BECMG 0602/0604 16006KT BECMG 0612/0615 35006KT
Observation time: 3:15 hr. ago
Need help? Read our tutorial on how to read TAFs or read the parsed version below.

Parsed version of TAF for Tokyo Haneda International Airport (RJTT)

  • From 05 February at 18:00 UTC, to day 07 of the month at 00:00 UTC
  • Clouds: A few at 610 meters
  • Visibility: Greater than 10 km
  • Wind: 350 degrees at 10
  • Expected to arise soon, from 06 February at 02:00 UTC, to day 06 of the month at 04:00 UTC
  • Wind: 160 degrees at 6
  • Expected to arise soon, from 06 February at 12:00 UTC, to day 06 of the month at 15:00 UTC
  • Wind: 350 degrees at 6